Recent forum postings ...
2021-04-13
Change wake turbulence after filing FP
2021-04-12
KLM-VA site "not responding", is my flight toast?
2021-04-10
Fly KLM Mon CTL
2021-04-09
SCHEDULE FLIGHT BOEING 737
2021-04-08
Law and rules in KLM VA
2021-04-04
Flying a Tour.


 
Aircraft IdentFlightrulesType of Flight
KLM977V
NumberType of AircraftWake turbulenceEquipmentTransponder Type
1C172ZZ
Departure AerodromeDeparture Time
EHGG1645
Cruising speedFlight level
1003000
Route
VFR



Destination AerodromeTotal EETAlternative Aerodrome
EHGG0114EHGG
Other information
RMK/KLM VA EXAM FLIGHT /T/ SEL/EMR

Explanation of the IVAO flightplan

Eelde (EHGG), Netherlands

METAR
EHGG 080725Z AUTO 23006KT 9999 NSC 03/01 Q1021 NOSIG

WINDSW at 7 mph
VISIBILITY16 miles
CONDITIONS

Eelde (EHGG), Netherlands

METAR
EHGG 080855Z AUTO 23013KT 210V270 9999 NSC 05/01 Q1021 NOSIG

WINDSW at 15 mph
VISIBILITY16 miles
CONDITIONS

Registration TimeGroundspeedAltitudeTransponderHeadingLongitudeLatitudeOn ground
08:16 08-04-20210 kts10 ft234566.5850653.12793Yes
08:190 kts10 ft234566.5850653.12793Yes
08:220 kts10 ft234566.5850653.12793Yes
08:250 kts10 ft234566.5850653.12793Yes
08:280 kts10 ft234566.5850653.12793Yes
08:310 kts10 ft234566.5850653.12793Yes
08:340 kts10 ft234566.5850653.12793Yes
08:370 kts10 ft234566.5850653.12793Yes
08:401 kts10 ft2345906.5851353.12798Yes
08:4329 kts13 ft23452316.5788653.11949Yes
08:4671 kts258 ft2345526.5888853.12422Yes
08:4967 kts1311 ft23452176.595453.15224Yes
08:5281 kts283 ft23451546.5313653.10774Yes
08:5584 kts1212 ft2345476.6164253.13496Yes
08:5879 kts1819 ft23452266.5870853.14447Yes
09:0176 kts548 ft23451536.5175153.10176Yes
09:0430 kts8 ft2345516.5872953.12347Yes
09:070 kts10 ft23453096.5850553.12767Yes
09:100 kts10 ft23453096.5850553.12767Yes